Time;durP1;ratioP1;P1;durP2;ratioP2;P2;SDS_P1;SDS_P2;PMS_P1;PMS_P2;Temp;Humidity;BMP_temperature;BMP_pressure;BME280_temperature;BME280_humidity;BME280_pressure;Samples;Min_cycle;Max_cycle;Signal;HPM_P1;HPM_P2
2023/04/06 00:00:09;;;;;;;;;30.25;22.25;;;;;8.37;49.71;101785.88;4990252;28;11495;-68
2023/04/06 00:02:36;;;;;;;;;26.00;24.25;;;;;8.37;49.30;101785.88;4987919;28;11560;-69
2023/04/06 00:05:03;;;;;;;;;29.25;22.75;;;;;8.36;48.85;101781.47;4987392;28;11498;-68
2023/04/06 00:07:29;;;;;;;;;25.50;20.50;;;;;8.36;49.16;101778.78;4969451;28;11486;-65
2023/04/06 00:09:56;;;;;;;;;29.75;23.75;;;;;8.37;48.71;101782.34;4983881;28;11575;-68
2023/04/06 00:12:23;;;;;;;;;27.00;24.00;;;;;8.29;48.88;101775.03;4990789;28;11463;-65
2023/04/06 00:14:50;;;;;;;;;32.00;24.50;;;;;8.24;49.03;101768.47;4980328;28;11542;-67
2023/04/06 00:17:17;;;;;;;;;21.50;20.00;;;;;8.24;48.39;101772.00;4983791;28;11538;-66
2023/04/06 00:19:43;;;;;;;;;27.00;23.25;;;;;8.25;48.63;101773.69;4984821;28;11546;-69
2023/04/06 00:22:10;;;;;;;;;17.00;16.50;;;;;8.24;49.62;101769.31;4987376;28;11446;-68
2023/04/06 00:24:37;;;;;;;;;26.25;20.25;;;;;8.15;49.29;101756.84;4985999;28;11498;-68
2023/04/06 00:27:03;;;;;;;;;19.75;19.00;;;;;8.13;49.71;101764.19;4987950;28;12216;-68
2023/04/06 00:29:30;;;;;;;;;23.50;22.25;;;;;8.15;48.76;101755.00;4970394;28;11585;-68
2023/04/06 00:31:56;;;;;;;;;24.00;22.75;;;;;8.15;49.11;101751.50;4991019;28;11488;-69
2023/04/06 00:34:23;;;;;;;;;19.50;18.25;;;;;8.16;49.56;101745.97;4976598;28;11561;-69
2023/04/06 00:36:49;;;;;;;;;22.00;19.75;;;;;8.18;48.55;101748.47;4975332;28;11488;-69
2023/04/06 00:39:15;;;;;;;;;18.00;14.00;;;;;8.16;48.92;101747.81;4988771;28;11466;-69
2023/04/06 00:41:50;;;;;;;;;27.00;23.00;;;;;8.13;49.09;101750.78;4974991;28;11483;-70
2023/04/06 00:44:17;;;;;;;;;23.00;23.00;;;;;8.06;48.59;101739.00;4958151;28;11517;-69
2023/04/06 00:46:44;;;;;;;;;37.50;24.25;;;;;8.03;49.24;101742.00;4977736;28;12274;-70
2023/04/06 00:49:11;;;;;;;;;25.50;19.00;;;;;8.04;49.22;101736.47;4989376;28;12432;-66
2023/04/06 00:51:37;;;;;;;;;25.25;18.75;;;;;8.02;49.01;101730.44;4963885;28;11507;-68
2023/04/06 00:54:04;;;;;;;;;20.00;19.50;;;;;8.00;48.72;101731.59;4977512;28;12286;-65
2023/04/06 00:56:33;;;;;;;;;24.25;20.75;;;;;7.99;48.99;101729.91;4976839;28;11633;-66
2023/04/06 00:59:00;;;;;;;;;20.75;16.50;;;;;7.96;48.92;101728.38;4972554;28;11611;-69
2023/04/06 01:01:28;;;;;;;;;25.25;21.25;;;;;7.93;48.21;101724.16;4957375;28;11485;-70
2023/04/06 01:03:58;;;;;;;;;16.25;12.50;;;;;7.92;48.57;101717.13;4971532;28;11551;-70
2023/04/06 01:06:25;;;;;;;;;25.00;20.00;;;;;7.87;48.62;101711.38;4964319;28;11474;-70
2023/04/06 01:09:00;;;;;;;;;23.50;21.00;;;;;7.82;48.57;101704.78;4973131;28;12279;-69
2023/04/06 01:11:28;;;;;;;;;20.50;16.00;;;;;7.82;48.74;101705.66;4971622;28;11500;-69
2023/04/06 01:13:55;;;;;;;;;24.00;22.00;;;;;7.84;47.93;101706.31;4963751;28;11501;-70
2023/04/06 01:16:27;;;;;;;;;25.50;17.25;;;;;7.84;48.32;101702.81;4974437;28;11466;-66
2023/04/06 01:19:10;;;;;;;;;21.00;20.50;;;;;7.83;48.49;101696.59;4961242;28;11509;-67
2023/04/06 01:21:40;;;;;;;;;18.00;18.00;;;;;7.80;48.65;101694.22;4974336;28;11640;-67
2023/04/06 01:24:22;;;;;;;;;21.25;20.25;;;;;7.78;48.11;101695.38;4963193;28;11528;-70
2023/04/06 01:27:07;;;;;;;;;20.75;18.25;;;;;7.76;48.31;101695.53;4993755;28;12356;-70
2023/04/06 01:29:44;;;;;;;;;22.75;21.25;;;;;7.71;48.35;101689.81;4966355;28;11523;-70
2023/04/06 01:32:17;;;;;;;;;15.00;15.00;;;;;7.77;48.99;101691.00;4956757;28;11553;-68
2023/04/06 01:34:48;;;;;;;;;19.75;19.75;;;;;7.71;48.21;101688.97;4988137;28;11480;-69
2023/04/06 01:37:15;;;;;;;;;20.25;17.25;;;;;7.68;48.26;101679.38;4975536;28;11476;-69
2023/04/06 01:39:43;;;;;;;;;18.25;16.50;;;;;7.70;48.26;101677.41;4966840;28;11618;-66
2023/04/06 01:42:14;;;;;;;;;21.25;19.50;;;;;7.68;47.91;101672.19;4956664;28;11491;-68
2023/04/06 01:44:40;;;;;;;;;20.75;19.00;;;;;7.66;47.81;101666.16;4963858;28;11576;-67
2023/04/06 01:47:12;;;;;;;;;17.50;16.25;;;;;7.69;47.95;101659.63;4958704;28;11592;-66
2023/04/06 01:49:39;;;;;;;;;23.50;19.25;;;;;7.67;47.76;101658.97;4968047;28;11589;-68
2023/04/06 01:52:06;;;;;;;;;18.75;15.00;;;;;7.67;48.43;101658.97;4940646;28;11663;-70
2023/04/06 01:54:35;;;;;;;;;24.00;23.00;;;;;7.67;48.30;101658.97;4964029;28;11493;-70
2023/04/06 01:57:19;;;;;;;;;18.75;17.00;;;;;7.65;48.53;101655.56;4993168;28;11575;-68
2023/04/06 01:59:52;;;;;;;;;24.50;19.75;;;;;7.66;48.38;101657.28;4965707;28;11489;-69
2023/04/06 02:02:28;;;;;;;;;18.00;14.50;;;;;7.68;48.67;101660.63;4988785;28;11464;-70
2023/04/06 02:05:02;;;;;;;;;23.75;20.00;;;;;7.69;48.22;101649.75;4968574;28;11471;-69
2023/04/06 02:07:29;;;;;;;;;18.75;17.25;;;;;7.63;49.04;101642.34;4972997;28;11560;-66
2023/04/06 02:09:56;;;;;;;;;19.75;19.75;;;;;7.56;48.37;101640.44;4975415;28;11519;-67
2023/04/06 02:12:31;;;;;;;;;19.75;17.75;;;;;7.56;49.45;101643.13;4975423;28;11481;-67
2023/04/06 02:14:57;;;;;;;;;20.00;20.00;;;;;7.56;49.17;101637.75;4974675;28;11485;-66
2023/04/06 02:17:24;;;;;;;;;23.75;22.50;;;;;7.57;49.00;101634.06;4973614;28;11524;-68
2023/04/06 02:19:51;;;;;;;;;20.75;18.00;;;;;7.57;48.91;101632.22;4964115;28;11468;-68
2023/04/06 02:22:17;;;;;;;;;24.50;21.50;;;;;7.56;49.22;101632.41;4973351;28;11580;-69
2023/04/06 02:24:44;;;;;;;;;20.75;18.50;;;;;7.56;49.77;101630.56;4964606;28;11483;-68
2023/04/06 02:27:10;;;;;;;;;27.00;20.25;;;;;7.59;49.38;101621.38;4974877;28;11506;-69
2023/04/06 02:29:37;;;;;;;;;17.25;16.75;;;;;7.60;48.99;101623.88;4967742;28;11500;-69
2023/04/06 02:32:03;;;;;;;;;22.75;19.50;;;;;7.54;49.64;101612.97;4974307;28;12201;-65
2023/04/06 02:34:31;;;;;;;;;17.00;17.00;;;;;7.53;49.49;101622.81;4967030;28;11494;-65
2023/04/06 02:36:59;;;;;;;;;20.75;18.75;;;;;7.51;49.50;101622.16;4956996;28;11483;-67
2023/04/06 02:39:25;;;;;;;;;22.00;17.50;;;;;7.51;49.61;101624.81;4975120;28;11474;-65
2023/04/06 02:41:52;;;;;;;;;25.75;20.00;;;;;7.49;49.65;101620.63;4959961;28;12213;-67
2023/04/06 02:44:22;;;;;;;;;18.75;18.00;;;;;7.48;49.24;101624.28;4968088;28;12270;-66
2023/04/06 02:46:48;;;;;;;;;22.00;20.00;;;;;7.41;49.53;101616.03;4955312;28;11498;-67
2023/04/06 02:49:15;;;;;;;;;19.00;18.00;;;;;7.40;49.71;101609.81;4962895;28;11502;-67
2023/04/06 02:51:44;;;;;;;;;19.25;19.00;;;;;7.40;49.74;101607.16;4974652;28;11468;-66
2023/04/06 02:54:17;;;;;;;;;22.25;17.25;;;;;7.43;50.00;101608.69;4968764;28;11508;-65
2023/04/06 02:56:44;;;;;;;;;23.50;22.25;;;;;7.41;49.94;101603.50;4958334;28;11612;-65
2023/04/06 02:59:11;;;;;;;;;20.50;16.25;;;;;7.43;49.94;101601.50;4959989;28;11566;-65
2023/04/06 03:01:42;;;;;;;;;22.50;19.75;;;;;7.42;49.88;101591.78;4974544;28;11484;-65
2023/04/06 03:04:08;;;;;;;;;20.00;16.75;;;;;7.42;49.59;101591.78;4969883;28;11684;-66
2023/04/06 03:06:35;;;;;;;;;21.00;18.25;;;;;7.40;49.74;101588.41;4972609;28;11466;-67
2023/04/06 03:09:11;;;;;;;;;24.00;21.75;;;;;7.37;49.86;101575.34;4968017;28;11494;-66
2023/04/06 03:11:41;;;;;;;;;20.00;20.00;;;;;7.42;50.19;101580.22;4968597;28;11464;-66
2023/04/06 03:14:07;;;;;;;;;23.75;16.00;;;;;7.41;49.75;101575.84;4964285;28;11490;-67
2023/04/06 03:16:33;;;;;;;;;21.00;17.25;;;;;7.37;49.82;101577.16;4955200;28;11632;-68
2023/04/06 03:19:01;;;;;;;;;14.00;14.00;;;;;7.37;50.20;101570.00;4957864;28;11535;-69
2023/04/06 03:21:32;;;;;;;;;18.25;16.75;;;;;7.42;50.65;101567.69;4991646;28;11457;-65
2023/04/06 03:23:58;;;;;;;;;22.75;21.25;;;;;7.44;49.45;101571.03;4970114;28;11482;-70
2023/04/06 03:26:26;;;;;;;;;20.00;18.25;;;;;7.42;50.02;101567.69;4956843;28;12416;-65
2023/04/06 03:28:52;;;;;;;;;20.00;19.50;;;;;7.41;50.19;101565.13;4967083;28;11535;-66
2023/04/06 03:31:23;;;;;;;;;27.50;20.00;;;;;7.31;50.12;101561.72;4974198;28;11540;-69
2023/04/06 03:33:58;;;;;;;;;18.75;18.75;;;;;7.29;50.35;101561.88;4970766;28;11499;-69
2023/04/06 03:36:30;;;;;;;;;21.00;19.00;;;;;7.33;50.65;101560.59;4971327;28;11452;-68
2023/04/06 03:38:57;;;;;;;;;19.50;18.00;;;;;7.32;50.05;101553.53;4973359;28;11479;-70
2023/04/06 03:41:23;;;;;;;;;18.00;17.75;;;;;7.35;50.75;101557.75;4973531;28;11705;-70
2023/04/06 03:44:00;;;;;;;;;20.25;20.25;;;;;7.34;50.26;101561.41;4980535;28;11651;-65
2023/04/06 03:46:26;;;;;;;;;18.00;18.00;;;;;7.36;50.58;101557.56;4957738;28;11470;-69
2023/04/06 03:48:56;;;;;;;;;17.75;13.75;;;;;7.39;50.12;101557.25;4965810;28;11454;-68
2023/04/06 03:51:23;;;;;;;;;19.50;18.75;;;;;7.38;50.28;101550.22;4969932;28;11474;-68
2023/04/06 03:53:50;;;;;;;;;14.00;11.50;;;;;7.40;50.20;101548.22;4988143;28;11868;-67
2023/04/06 03:56:16;;;;;;;;;30.75;17.75;;;;;7.41;50.74;101555.28;4971401;28;11519;-67
2023/04/06 03:58:44;;;;;;;;;25.25;21.75;;;;;7.44;50.62;101548.75;4972012;28;11479;-67
2023/04/06 04:01:12;;;;;;;;;24.00;21.75;;;;;7.41;50.41;101544.56;4960940;28;11463;-67
2023/04/06 04:03:38;;;;;;;;;21.75;18.50;;;;;7.40;51.13;101547.38;4982683;28;11593;-68
2023/04/06 04:06:05;;;;;;;;;24.25;16.50;;;;;7.41;50.97;101547.25;4986295;28;12313;-67
2023/04/06 04:08:32;;;;;;;;;18.25;16.50;;;;;7.41;50.82;101546.38;4963063;28;12402;-70
2023/04/06 04:11:00;;;;;;;;;26.25;24.25;;;;;7.36;51.09;101538.81;4973465;28;12576;-67
2023/04/06 04:13:27;;;;;;;;;20.25;17.00;;;;;7.40;51.52;101539.34;4973495;28;11507;-69
2023/04/06 04:15:55;;;;;;;;;23.75;22.50;;;;;7.39;51.72;101546.56;4960294;28;11477;-69
2023/04/06 04:18:21;;;;;;;;;20.25;20.25;;;;;7.42;51.91;101538.22;4971752;28;11568;-69
2023/04/06 04:20:48;;;;;;;;;21.75;20.00;;;;;7.42;51.63;101535.53;4977369;28;11484;-69
2023/04/06 04:23:14;;;;;;;;;19.50;19.00;;;;;7.43;51.72;101531.84;4973128;28;11485;-70
2023/04/06 04:25:41;;;;;;;;;18.00;16.25;;;;;7.40;52.31;101542.03;4956570;28;11497;-68
2023/04/06 04:28:07;;;;;;;;;25.50;18.00;;;;;7.36;52.07;101540.66;4973254;28;11474;-67
2023/04/06 04:30:36;;;;;;;;;21.00;17.50;;;;;7.36;52.30;101533.47;4989149;28;11500;-67
2023/04/06 04:33:07;;;;;;;;;22.25;17.75;;;;;7.31;52.27;101535.78;4966872;28;11567;-67
2023/04/06 04:35:34;;;;;;;;;24.50;17.75;;;;;7.32;52.79;101536.63;4990281;28;11610;-67
2023/04/06 04:38:00;;;;;;;;;22.50;18.50;;;;;7.32;52.04;101537.44;4969439;28;11661;-69
2023/04/06 04:40:27;;;;;;;;;26.25;23.75;;;;;7.30;52.10;101531.44;4972909;28;11510;-69
2023/04/06 04:43:02;;;;;;;;;20.00;19.75;;;;;7.31;52.74;101530.41;4972932;28;11494;-69
2023/04/06 04:45:32;;;;;;;;;22.75;20.00;;;;;7.30;52.70;101528.75;4982044;28;11474;-68
2023/04/06 04:48:05;;;;;;;;;18.00;17.75;;;;;7.30;52.63;101530.59;4973088;28;11501;-69
2023/04/06 04:50:44;;;;;;;;;23.25;20.25;;;;;7.30;52.63;101526.06;4972800;28;12178;-68
2023/04/06 04:53:12;;;;;;;;;24.25;24.25;;;;;7.28;52.68;101525.38;4957360;28;12312;-68
2023/04/06 04:55:41;;;;;;;;;28.50;26.00;;;;;7.27;52.55;101522.84;4969580;28;11501;-67
2023/04/06 04:58:10;;;;;;;;;28.00;22.75;;;;;7.27;53.25;101521.03;4959091;28;11511;-68
2023/04/06 05:00:57;;;;;;;;;29.00;25.50;;;;;7.23;52.71;101521.50;4982955;28;11495;-69
2023/04/06 05:03:26;;;;;;;;;25.00;21.75;;;;;7.12;52.98;101519.88;4972935;28;11649;-68
2023/04/06 05:06:05;;;;;;;;;29.25;27.25;;;;;7.11;54.60;101519.06;4956080;28;11545;-68
2023/04/06 05:08:35;;;;;;;;;24.75;19.00;;;;;7.14;54.31;101523.28;4957027;28;11506;-68
2023/04/06 05:11:02;;;;;;;;;32.75;22.75;;;;;7.16;53.50;101518.59;4974614;28;12402;-69
2023/04/06 05:13:33;;;;;;;;;26.50;22.75;;;;;7.17;53.35;101521.13;4989622;28;11526;-70
2023/04/06 05:16:05;;;;;;;;;37.50;27.75;;;;;7.19;53.54;101515.59;4972087;28;11526;-67
2023/04/06 05:18:33;;;;;;;;;24.00;18.50;;;;;7.18;53.42;101520.13;4975651;28;12400;-68
2023/04/06 05:21:01;;;;;;;;;24.00;21.75;;;;;7.18;53.00;101520.13;4957281;28;11521;-69
2023/04/06 05:23:47;;;;;;;;;22.75;21.00;;;;;7.21;53.57;101516.31;4974249;28;11711;-69
2023/04/06 05:26:14;;;;;;;;;27.50;23.50;;;;;7.18;53.32;101513.94;4951546;28;11647;-71
2023/04/06 05:28:42;;;;;;;;;24.50;20.25;;;;;7.14;53.30;101513.41;4972641;28;11507;-67
2023/04/06 05:31:09;;;;;;;;;21.00;21.00;;;;;7.15;54.25;101516.91;4965407;28;11560;-67
2023/04/06 05:33:44;;;;;;;;;23.50;18.50;;;;;7.17;53.91;101517.56;4972867;28;11532;-66
2023/04/06 05:36:14;;;;;;;;;26.00;23.00;;;;;7.18;53.37;101513.94;4975714;28;11524;-65
2023/04/06 05:38:44;;;;;;;;;31.75;23.75;;;;;7.19;53.59;101518.28;4976120;28;11521;-66
2023/04/06 05:41:30;;;;;;;;;24.25;20.50;;;;;7.21;53.38;101512.75;4986604;28;11514;-69
2023/04/06 05:43:57;;;;;;;;;18.00;17.00;;;;;7.23;53.82;101510.78;4975198;28;11613;-69
2023/04/06 05:46:24;;;;;;;;;28.00;24.50;;;;;7.19;53.37;101508.41;4974587;28;11649;-69
2023/04/06 05:48:53;;;;;;;;;26.75;22.25;;;;;7.18;53.05;101514.75;4992141;28;11579;-69
2023/04/06 05:51:24;;;;;;;;;40.50;35.25;;;;;7.21;53.88;101512.75;4972676;28;11507;-68
2023/04/06 05:53:51;;;;;;;;;25.50;23.50;;;;;7.23;53.65;101508.94;4970917;28;11561;-68
2023/04/06 05:56:17;;;;;;;;;25.00;23.50;;;;;7.24;54.26;101512.44;4985624;28;11557;-68
2023/04/06 05:58:44;;;;;;;;;27.25;23.00;;;;;7.28;54.66;101505.78;4989175;28;11595;-69
2023/04/06 06:01:15;;;;;;;;;27.00;25.00;;;;;7.27;53.94;101512.97;4968292;28;11700;-69
2023/04/06 06:03:45;;;;;;;;;25.75;25.00;;;;;7.29;53.93;101512.81;4974061;28;11524;-69
2023/04/06 06:06:11;;;;;;;;;34.75;30.75;;;;;7.31;54.64;101516.19;4968901;28;11659;-69
2023/04/06 06:08:55;;;;;;;;;29.50;25.00;;;;;7.32;54.38;101518.69;4965148;28;11494;-69
2023/04/06 06:11:21;;;;;;;;;33.75;27.00;;;;;7.38;54.04;101512.75;4973366;28;11506;-66
2023/04/06 06:13:48;;;;;;;;;30.00;27.25;;;;;7.41;54.04;101509.75;4958731;28;11626;-67
2023/04/06 06:16:15;;;;;;;;;25.25;21.75;;;;;7.49;54.37;101513.47;4954976;28;11613;-65
2023/04/06 06:18:45;;;;;;;;;32.75;31.00;;;;;7.49;53.95;101506.25;4957259;28;11652;-69
2023/04/06 06:21:12;;;;;;;;;29.75;28.00;;;;;7.44;53.76;101509.41;4975005;28;11625;-69
2023/04/06 06:23:39;;;;;;;;;33.25;32.25;;;;;7.49;53.57;101503.56;4974104;28;11550;-68
2023/04/06 06:26:06;;;;;;;;;25.00;22.25;;;;;7.55;53.13;101507.47;4955672;28;11602;-68
2023/04/06 06:28:33;;;;;;;;;27.25;24.00;;;;;7.64;53.30;101511.88;4955582;28;11616;-67
2023/04/06 06:30:59;;;;;;;;;29.25;28.25;;;;;7.71;53.46;101509.44;4968228;28;11486;-70
2023/04/06 06:33:26;;;;;;;;;35.00;29.00;;;;;7.75;53.69;101500.06;4972973;28;11493;-70
2023/04/06 06:35:54;;;;;;;;;33.50;30.25;;;;;7.76;53.63;101507.09;4973500;28;11548;-69
2023/04/06 06:38:20;;;;;;;;;33.50;30.50;;;;;7.77;53.04;101506.09;4974343;28;11502;-69
2023/04/06 06:40:49;;;;;;;;;39.25;33.25;;;;;7.75;53.30;101511.63;4962473;28;11501;-70
2023/04/06 06:43:16;;;;;;;;;32.00;31.25;;;;;7.78;53.87;101510.44;4974604;28;12298;-67
2023/04/06 06:45:50;;;;;;;;;33.00;29.75;;;;;7.79;53.39;101509.47;4974107;28;11690;-67
2023/04/06 06:48:16;;;;;;;;;26.25;24.00;;;;;7.82;53.30;101501.94;4974519;28;11507;-67
2023/04/06 06:50:43;;;;;;;;;31.50;27.50;;;;;7.87;53.35;101501.47;4980556;28;11509;-68
2023/04/06 06:53:12;;;;;;;;;31.50;25.75;;;;;7.90;54.17;101495.78;4974397;28;11515;-67
2023/04/06 06:55:38;;;;;;;;;26.00;21.75;;;;;7.96;54.16;101507.69;4974632;28;11555;-69
2023/04/06 06:58:06;;;;;;;;;31.00;26.50;;;;;8.00;53.73;101498.34;4954924;28;11654;-71
2023/04/06 07:00:32;;;;;;;;;27.75;26.25;;;;;8.01;53.15;101502.69;4970730;28;11506;-69
2023/04/06 07:02:59;;;;;;;;;36.25;29.00;;;;;8.00;53.21;101490.28;4974231;28;11586;-69
2023/04/06 07:05:26;;;;;;;;;38.25;36.00;;;;;7.92;53.67;101499.97;4961554;28;11610;-70
2023/04/06 07:07:56;;;;;;;;;34.25;31.50;;;;;7.92;53.45;101497.28;4964680;28;11556;-69
2023/04/06 07:10:25;;;;;;;;;31.00;29.50;;;;;7.89;54.23;101486.88;4974124;28;11493;-69
2023/04/06 07:12:52;;;;;;;;;37.25;31.00;;;;;7.90;54.25;101485.06;4991695;28;11511;-68
2023/04/06 07:15:18;;;;;;;;;38.75;32.75;;;;;7.92;53.85;101483.06;4970660;28;11554;-69
2023/04/06 07:17:45;;;;;;;;;38.00;30.25;;;;;7.92;54.18;101488.41;4956280;28;11783;-68
2023/04/06 07:20:12;;;;;;;;;42.25;37.75;;;;;7.87;53.97;101483.53;4967619;28;11506;-70
2023/04/06 07:22:40;;;;;;;;;37.00;32.00;;;;;7.88;54.14;101481.69;4957928;28;11561;-66
2023/04/06 07:25:07;;;;;;;;;32.50;24.00;;;;;7.96;54.38;101488.94;4966361;28;11536;-66
2023/04/06 07:27:33;;;;;;;;;36.25;30.00;;;;;8.03;54.12;101481.94;4974010;28;11528;-66
2023/04/06 07:30:01;;;;;;;;;38.75;32.25;;;;;8.04;54.45;101483.59;4962923;28;11585;-67
2023/04/06 07:32:27;;;;;;;;;36.75;32.25;;;;;8.06;54.98;101484.25;4939085;28;11599;-69
2023/04/06 07:34:54;;;;;;;;;29.75;29.75;;;;;8.06;54.70;101478.91;4964342;28;12337;-68
2023/04/06 07:37:21;;;;;;;;;42.00;38.00;;;;;7.99;54.51;101475.22;4973918;28;11499;-70
2023/04/06 07:39:48;;;;;;;;;29.50;26.50;;;;;8.01;54.63;101484.75;4963741;28;11571;-69
2023/04/06 07:42:17;;;;;;;;;41.25;39.00;;;;;8.02;54.69;101480.22;4971857;28;11520;-71
2023/04/06 07:44:44;;;;;;;;;44.50;38.50;;;;;8.04;54.82;101480.91;4963498;28;11561;-69
2023/04/06 07:47:11;;;;;;;;;39.50;35.50;;;;;8.05;55.11;101479.91;4987783;28;11673;-67
2023/04/06 07:49:37;;;;;;;;;31.50;29.00;;;;;8.11;55.21;101480.13;4957236;28;12402;-69
2023/04/06 07:52:05;;;;;;;;;46.75;36.75;;;;;8.09;55.65;101482.09;4973210;28;12254;-67
2023/04/06 07:54:32;;;;;;;;;43.00;38.25;;;;;8.09;55.78;101481.28;4956592;28;11620;-68
2023/04/06 07:56:58;;;;;;;;;38.25;32.75;;;;;8.15;55.04;101478.78;4973516;28;12463;-69
2023/04/06 07:59:25;;;;;;;;;40.50;36.25;;;;;8.18;55.49;101483.84;4983900;28;11564;-68
2023/04/06 08:01:52;;;;;;;;;44.00;32.00;;;;;8.23;55.98;101472.63;4985809;28;11531;-69
2023/04/06 08:04:20;;;;;;;;;39.50;31.50;;;;;8.26;55.29;101479.47;4977207;28;11590;-69
2023/04/06 08:06:46;;;;;;;;;43.00;36.00;;;;;8.27;56.12;101473.97;4990416;28;11579;-69
2023/04/06 08:09:13;;;;;;;;;46.25;41.25;;;;;8.32;55.59;101477.00;4990114;28;12285;-69
2023/04/06 08:11:40;;;;;;;;;31.25;29.75;;;;;8.37;55.78;101461.25;4973186;28;11685;-66
2023/04/06 08:14:06;;;;;;;;;39.00;35.75;;;;;8.46;55.82;101469.31;4985792;28;11510;-68
2023/04/06 08:16:33;;;;;;;;;29.50;29.25;;;;;8.54;55.51;101477.38;4973983;28;11600;-67
2023/04/06 08:19:00;;;;;;;;;36.75;34.00;;;;;8.58;55.48;101468.84;4974383;28;12256;-67
2023/04/06 08:21:26;;;;;;;;;32.75;30.00;;;;;8.64;56.06;101470.88;4990871;28;11489;-66
2023/04/06 08:23:52;;;;;;;;;36.25;34.75;;;;;8.70;55.14;101463.16;4985883;28;11541;-66
2023/04/06 08:26:19;;;;;;;;;35.25;30.25;;;;;8.76;55.83;101465.19;4988553;28;11502;-66
2023/04/06 08:28:46;;;;;;;;;33.50;31.00;;;;;8.79;55.85;101471.06;4988753;28;11517;-66
2023/04/06 08:31:12;;;;;;;;;46.75;37.50;;;;;8.79;55.90;101470.19;4961721;28;11513;-66
2023/04/06 08:33:39;;;;;;;;;38.25;35.25;;;;;8.79;55.99;101473.75;4989671;28;11623;-66
2023/04/06 08:36:09;;;;;;;;;44.25;41.50;;;;;8.83;56.21;101474.22;4970915;28;11487;-65
2023/04/06 08:38:36;;;;;;;;;45.75;38.50;;;;;8.87;55.95;101468.38;4972977;28;11540;-67
2023/04/06 08:41:12;;;;;;;;;41.00;35.00;;;;;8.88;57.07;101470.06;4973870;28;11693;-67
2023/04/06 08:43:43;;;;;;;;;44.75;38.25;;;;;8.91;57.41;101472.41;4975146;28;11585;-69
2023/04/06 08:46:11;;;;;;;;;43.00;40.00;;;;;8.91;57.03;101463.50;4993897;28;11496;-68
2023/04/06 08:48:42;;;;;;;;;36.75;33.50;;;;;8.94;57.38;101462.31;4993454;28;11647;-68
2023/04/06 08:51:11;;;;;;;;;53.00;39.25;;;;;8.99;57.56;101466.16;4974802;28;11513;-68
2023/04/06 08:53:38;;;;;;;;;52.25;41.25;;;;;9.00;57.20;101475.94;4979177;28;11731;-68
2023/04/06 08:56:06;;;;;;;;;39.00;37.00;;;;;9.01;57.54;101474.06;4974387;28;11712;-69
2023/04/06 08:58:37;;;;;;;;;41.75;33.75;;;;;9.07;58.27;101473.38;4957155;28;11516;-67
2023/04/06 09:01:11;;;;;;;;;40.50;34.75;;;;;9.16;57.88;101469.72;4974598;28;11579;-66
2023/04/06 09:03:39;;;;;;;;;46.75;38.00;;;;;9.22;58.13;101466.31;4974935;28;11560;-68
2023/04/06 09:06:08;;;;;;;;;44.00;37.00;;;;;9.25;57.52;101463.31;4993005;28;11509;-66
2023/04/06 09:08:36;;;;;;;;;40.75;36.25;;;;;9.32;58.06;101472.38;4993468;28;11504;-64
2023/04/06 09:11:03;;;;;;;;;42.75;36.50;;;;;9.32;58.11;101471.53;4993973;28;11752;-64
2023/04/06 09:13:30;;;;;;;;;44.75;37.25;;;;;9.35;58.72;101469.31;4993967;28;11485;-66
2023/04/06 09:16:02;;;;;;;;;47.75;41.75;;;;;9.38;59.64;101473.53;4989689;28;11493;-66
2023/04/06 09:18:33;;;;;;;;;44.00;41.00;;;;;9.35;60.28;101472.00;4974274;28;12269;-67
2023/04/06 09:21:05;;;;;;;;;53.25;45.00;;;;;9.29;60.81;101474.56;4993585;28;11528;-66
2023/04/06 09:23:33;;;;;;;;;50.75;44.75;;;;;9.30;61.40;101478.91;4975071;28;11647;-68
2023/04/06 09:26:16;;;;;;;;;37.75;36.50;;;;;9.35;61.68;101481.91;4973802;28;11553;-67
2023/04/06 09:28:50;;;;;;;;;36.50;35.00;;;;;9.33;61.84;101478.56;4975029;28;11487;-67
2023/04/06 09:31:24;;;;;;;;;46.25;43.50;;;;;9.27;62.44;101477.41;4993407;28;11489;-67
2023/04/06 09:33:54;;;;;;;;;45.00;42.25;;;;;9.13;62.05;101478.09;4991690;28;12299;-66
2023/04/06 09:36:30;;;;;;;;;41.75;36.75;;;;;9.17;63.09;101482.13;4992872;28;11652;-69
2023/04/06 09:38:59;;;;;;;;;52.50;43.25;;;;;9.12;63.15;101484.47;4978935;28;11566;-68
2023/04/06 09:41:28;;;;;;;;;50.50;42.50;;;;;9.12;63.64;101484.47;4973942;28;11555;-68
2023/04/06 09:44:12;;;;;;;;;48.75;41.75;;;;;9.09;63.49;101476.75;4976301;28;11570;-69
2023/04/06 09:46:43;;;;;;;;;53.50;43.00;;;;;9.11;63.84;101486.31;4991382;28;11555;-67
2023/04/06 09:49:30;;;;;;;;;49.25;42.00;;;;;9.10;64.30;101478.44;4968643;28;11690;-69
2023/04/06 09:52:03;;;;;;;;;53.75;39.50;;;;;9.12;64.46;101479.13;4957367;28;11728;-70
2023/04/06 09:54:31;;;;;;;;;50.00;40.50;;;;;9.16;64.84;101485.81;4963253;28;11554;-70
2023/04/06 09:57:00;;;;;;;;;36.50;31.50;;;;;9.17;64.83;101482.13;4992893;28;11545;-68
2023/04/06 09:59:51;;;;;;;;;51.75;43.25;;;;;9.05;66.02;101478.94;4985574;28;11565;-70
2023/04/06 10:02:24;;;;;;;;;44.00;41.00;;;;;9.09;66.40;101474.91;4973387;28;11673;-68
2023/04/06 10:05:08;;;;;;;;;51.25;41.75;;;;;9.15;66.20;101481.44;4982951;28;11479;-69
2023/04/06 10:07:36;;;;;;;;;51.75;43.25;;;;;9.10;67.15;101470.38;4991618;28;11528;-69
2023/04/06 10:10:22;;;;;;;;;46.50;41.75;;;;;9.04;67.50;101476.44;4992393;28;11585;-66
2023/04/06 10:12:49;;;;;;;;;43.50;39.00;;;;;9.00;67.49;101467.88;4993029;28;11694;-67
2023/04/06 10:15:17;;;;;;;;;40.25;37.25;;;;;9.07;67.80;101471.53;4978301;28;12321;-67
2023/04/06 10:17:46;;;;;;;;;50.50;41.50;;;;;9.06;67.18;101474.41;4956417;28;11518;-67
2023/04/06 10:20:23;;;;;;;;;52.25;42.00;;;;;8.96;67.95;101469.22;4981350;28;11606;-69
2023/04/06 10:23:05;;;;;;;;;37.50;32.00;;;;;8.95;67.70;101464.00;4973419;28;11571;-70
2023/04/06 10:25:33;;;;;;;;;41.00;38.00;;;;;9.02;68.10;101470.38;4987347;28;11514;-70
2023/04/06 10:28:05;;;;;;;;;37.25;32.50;;;;;9.12;67.60;101457.63;4991905;28;11499;-70
2023/04/06 10:30:33;;;;;;;;;36.25;32.00;;;;;9.19;67.75;101457.78;4991983;28;11618;-65
2023/04/06 10:33:00;;;;;;;;;44.75;30.75;;;;;9.21;68.12;101461.13;4992295;28;11478;-65
2023/04/06 10:35:40;;;;;;;;;34.00;31.00;;;;;9.25;67.59;101459.78;4976722;28;11526;-68
2023/04/06 10:38:07;;;;;;;;;35.00;31.75;;;;;9.12;67.59;101452.25;4972698;28;11641;-69
2023/04/06 10:40:39;;;;;;;;;35.75;29.75;;;;;9.05;67.62;101457.44;4979793;28;11512;-68
2023/04/06 10:43:13;;;;;;;;;31.00;24.50;;;;;9.14;68.16;101453.75;4972642;28;11623;-66
2023/04/06 10:45:40;;;;;;;;;32.75;26.50;;;;;9.09;68.02;101444.53;4972492;28;11595;-66
2023/04/06 10:48:14;;;;;;;;;29.75;27.50;;;;;9.15;68.43;101446.53;4972448;28;11626;-65
2023/04/06 10:50:45;;;;;;;;;27.50;24.00;;;;;9.19;68.25;101441.66;4989384;28;11623;-65
2023/04/06 10:53:11;;;;;;;;;37.25;31.00;;;;;9.14;67.96;101444.84;4974636;28;11581;-65
2023/04/06 10:55:40;;;;;;;;;35.25;27.75;;;;;9.20;68.93;101433.44;4987229;28;11489;-66
2023/04/06 10:58:07;;;;;;;;;26.00;23.00;;;;;9.17;68.98;101436.47;4991925;28;11575;-66
2023/04/06 11:00:35;;;;;;;;;27.00;27.00;;;;;9.11;69.35;101434.44;4975478;28;11512;-67
2023/04/06 11:03:16;;;;;;;;;31.25;28.00;;;;;9.14;69.59;101426.88;4971962;28;11626;-66
2023/04/06 11:05:47;;;;;;;;;27.50;22.25;;;;;9.18;69.66;101424.69;4988986;28;11462;-67
2023/04/06 11:08:33;;;;;;;;;35.50;28.50;;;;;9.14;69.98;101429.56;4987945;28;12215;-69
2023/04/06 11:11:18;;;;;;;;;31.25;30.00;;;;;9.11;69.36;101431.75;4991550;28;11493;-69
2023/04/06 11:13:55;;;;;;;;;28.50;28.25;;;;;9.02;70.27;101417.50;4990574;28;11649;-68
2023/04/06 11:16:24;;;;;;;;;26.00;24.00;;;;;8.97;70.86;101419.03;4991425;28;11500;-69
2023/04/06 11:18:59;;;;;;;;;31.50;26.00;;;;;9.02;71.17;101417.50;4989219;28;11509;-69
2023/04/06 11:21:35;;;;;;;;;29.75;24.75;;;;;9.08;71.35;101413.31;4972269;28;11485;-69
2023/04/06 11:24:07;;;;;;;;;29.00;28.00;;;;;9.03;71.37;101416.47;4975809;28;11498;-68
2023/04/06 11:26:44;;;;;;;;;27.75;24.75;;;;;9.09;71.54;101417.69;4990800;28;11507;-68